createdAt,value
2017-11-19T00:00:48.673Z,5.99
2017-11-19T00:02:41.656Z,6.11
2017-11-19T00:03:41.708Z,6.07
2017-11-19T00:05:34.708Z,6.04
2017-11-19T00:06:34.744Z,6.14
2017-11-19T00:08:27.725Z,6.14
2017-11-19T00:09:27.785Z,6.08
2017-11-19T00:11:20.774Z,6.05
2017-11-19T00:12:20.811Z,6.05
2017-11-19T00:14:13.792Z,6.04
2017-11-19T00:15:13.845Z,6.05
2017-11-19T00:17:06.855Z,6.04
2017-11-19T00:18:06.883Z,6.01
2017-11-19T00:20:00.393Z,6.07
2017-11-19T00:21:00.427Z,6.09
2017-11-19T00:22:53.406Z,6.14
2017-11-19T00:23:53.459Z,6.14
2017-11-19T00:25:46.459Z,6.19
2017-11-19T00:26:46.496Z,6.19
2017-11-19T00:28:39.483Z,6.22
2017-11-19T00:29:39.535Z,6.16
2017-11-19T00:31:32.533Z,6.09
2017-11-19T00:32:32.571Z,6.17
2017-11-19T00:34:25.546Z,6.12
2017-11-19T00:35:25.603Z,6.22
2017-11-19T00:37:18.601Z,6.19
2017-11-19T00:38:18.640Z,6.26
2017-11-19T00:40:11.635Z,6.24
2017-11-19T00:41:11.669Z,6.12
2017-11-19T00:43:04.653Z,6.09
2017-11-19T00:44:04.704Z,6.09
2017-11-19T00:45:57.720Z,6.09
2017-11-19T00:46:57.762Z,6.11
2017-11-19T00:48:50.720Z,6.08
2017-11-19T00:49:50.775Z,6.08
2017-11-19T00:51:43.777Z,6.02
2017-11-19T00:52:43.807Z,6.11
2017-11-19T00:54:36.791Z,6.01
2017-11-19T00:55:36.844Z,5.89
2017-11-19T00:57:29.860Z,5.98
2017-11-19T00:58:29.891Z,5.93
2017-11-19T01:00:22.897Z,5.97
2017-11-19T01:01:22.940Z,5.87
2017-11-19T01:03:15.912Z,5.82
2017-11-19T01:04:15.968Z,5.80
2017-11-19T01:06:08.971Z,5.76
2017-11-19T01:07:09.004Z,5.86
2017-11-19T01:09:01.985Z,5.80
2017-11-19T01:10:02.038Z,5.82
2017-11-19T01:11:55.036Z,5.76
2017-11-19T01:12:55.074Z,5.84
2017-11-19T01:14:48.068Z,5.75
2017-11-19T01:15:48.114Z,5.73
2017-11-19T01:17:41.109Z,5.73
2017-11-19T01:18:41.144Z,5.71
2017-11-19T01:20:34.140Z,5.73
2017-11-19T01:21:34.179Z,5.80
2017-11-19T01:23:27.161Z,5.76
2017-11-19T01:24:27.213Z,5.80
2017-11-19T01:26:20.292Z,5.79
2017-11-19T01:27:20.246Z,5.71
2017-11-19T01:29:13.234Z,5.69
2017-11-19T01:30:13.282Z,5.71
2017-11-19T01:32:06.283Z,5.71
2017-11-19T01:33:06.317Z,5.71
2017-11-19T01:34:59.304Z,5.65
2017-11-19T01:35:59.362Z,5.64
2017-11-19T01:37:52.357Z,5.68
2017-11-19T01:38:52.394Z,5.61
2017-11-19T01:40:45.400Z,5.68
2017-11-19T01:41:45.442Z,5.61
2017-11-19T01:43:38.416Z,5.56
2017-11-19T01:44:38.470Z,5.44
2017-11-19T01:46:31.468Z,5.39
2017-11-19T01:47:31.504Z,5.38
2017-11-19T01:49:24.490Z,5.39
2017-11-19T01:50:24.542Z,5.44
2017-11-19T01:52:17.538Z,5.33
2017-11-19T01:53:17.574Z,5.36
2017-11-19T01:55:10.557Z,5.35
2017-11-19T01:56:10.611Z,5.32
2017-11-19T01:58:03.607Z,5.21
2017-11-19T01:59:03.643Z,5.30
2017-11-19T02:00:56.644Z,5.28
2017-11-19T02:01:56.678Z,5.23
2017-11-19T02:03:49.654Z,5.17
2017-11-19T02:04:49.714Z,5.20
2017-11-19T02:06:42.711Z,5.18
2017-11-19T02:07:42.747Z,5.17
2017-11-19T02:09:35.723Z,5.18
2017-11-19T02:10:35.779Z,5.17
2017-11-19T02:12:28.775Z,5.20
2017-11-19T02:13:28.811Z,5.10
2017-11-19T02:15:21.811Z,5.18
2017-11-19T02:16:21.852Z,5.18
2017-11-19T02:18:14.855Z,5.11
2017-11-19T02:19:14.892Z,5.07
2017-11-19T02:21:07.897Z,5.05
2017-11-19T02:22:07.926Z,5.10
2017-11-19T02:24:00.908Z,5.10
2017-11-19T02:25:00.956Z,4.99
2017-11-19T02:26:53.956Z,5.00
2017-11-19T02:27:53.991Z,4.96
2017-11-19T02:29:46.967Z,4.90
2017-11-19T02:30:47.022Z,4.94
2017-11-19T02:32:40.027Z,4.87
2017-11-19T02:33:40.062Z,4.89
2017-11-19T02:35:33.038Z,4.90
2017-11-19T02:36:33.094Z,4.86
2017-11-19T02:38:26.089Z,4.82
2017-11-19T02:39:26.126Z,4.80
2017-11-19T02:41:19.112Z,4.70
2017-11-19T02:42:19.168Z,4.78
2017-11-19T02:44:12.165Z,4.70
2017-11-19T02:45:12.199Z,4.62
2017-11-19T02:47:05.200Z,4.62
2017-11-19T02:48:05.233Z,4.56
2017-11-19T02:49:58.216Z,4.66
2017-11-19T02:50:58.265Z,4.62
2017-11-19T02:52:51.263Z,4.63
2017-11-19T02:53:51.299Z,4.66
2017-11-19T02:55:44.275Z,4.62
2017-11-19T02:56:44.332Z,4.68
2017-11-19T02:58:37.330Z,4.62
2017-11-19T02:59:37.365Z,4.63
2017-11-19T03:01:30.342Z,4.50
2017-11-19T03:02:30.398Z,4.62
2017-11-19T03:04:23.394Z,4.56
2017-11-19T03:05:23.427Z,4.59
2017-11-19T03:07:16.426Z,4.56
2017-11-19T03:08:16.463Z,4.66
2017-11-19T03:10:09.437Z,4.67
2017-11-19T03:11:09.495Z,4.63
2017-11-19T03:13:02.502Z,4.77
2017-11-19T03:14:02.526Z,4.73
2017-11-19T03:15:55.502Z,4.84
2017-11-19T03:16:55.558Z,4.75
2017-11-19T03:18:48.560Z,4.80
2017-11-19T03:19:48.591Z,4.75
2017-11-19T03:21:41.568Z,4.73
2017-11-19T03:22:41.624Z,4.75
2017-11-19T03:24:34.621Z,4.78
2017-11-19T03:25:34.655Z,4.67
2017-11-19T03:27:27.661Z,4.60
2017-11-19T03:28:27.690Z,4.73
2017-11-19T03:30:20.676Z,4.59
2017-11-19T03:31:20.735Z,4.60
2017-11-19T03:33:13.740Z,4.67
2017-11-19T03:34:13.774Z,4.62
2017-11-19T03:36:06.749Z,4.62
2017-11-19T03:37:06.812Z,4.67
2017-11-19T03:38:59.801Z,4.56
2017-11-19T03:39:59.836Z,4.66
2017-11-19T03:41:52.818Z,4.62
2017-11-19T03:42:52.871Z,4.60
2017-11-19T03:44:45.875Z,4.63
2017-11-19T03:45:45.906Z,4.73
2017-11-19T03:47:38.918Z,4.71
2017-11-19T03:48:38.952Z,4.63
2017-11-19T03:50:31.929Z,4.75
2017-11-19T03:51:31.983Z,4.74
2017-11-19T03:53:24.980Z,4.62
2017-11-19T03:54:25.017Z,4.70
2017-11-19T03:56:17.995Z,4.63
2017-11-19T03:57:18.049Z,4.66
2017-11-19T03:59:11.050Z,4.62
2017-11-19T04:00:11.088Z,4.59
2017-11-19T04:02:04.068Z,4.60
2017-11-19T04:03:04.118Z,4.59
2017-11-19T04:04:57.115Z,4.60
2017-11-19T04:05:57.151Z,4.53
2017-11-19T04:07:50.146Z,4.56
2017-11-19T04:08:50.181Z,4.62
2017-11-19T04:10:43.169Z,4.59
2017-11-19T04:11:43.229Z,4.60
2017-11-19T04:13:36.227Z,4.62
2017-11-19T04:14:36.265Z,4.60
2017-11-19T04:16:29.241Z,4.73
2017-11-19T04:17:29.295Z,4.63
2017-11-19T04:19:22.805Z,4.63
2017-11-19T04:20:22.835Z,4.67
2017-11-19T04:22:15.821Z,4.62
2017-11-19T04:23:15.876Z,4.66
2017-11-19T04:25:08.882Z,4.59
2017-11-19T04:26:08.909Z,4.59
2017-11-19T04:28:01.908Z,4.56
2017-11-19T04:29:01.944Z,4.60
2017-11-19T04:30:54.917Z,4.58
2017-11-19T04:31:54.977Z,4.60
2017-11-19T04:33:47.972Z,4.78
2017-11-19T04:34:48.008Z,4.67
2017-11-19T04:36:40.990Z,4.82
2017-11-19T04:37:41.042Z,4.74
2017-11-19T04:39:35.036Z,4.80
2017-11-19T04:40:35.076Z,4.70
2017-11-19T04:42:28.079Z,4.66
2017-11-19T04:43:28.139Z,4.73
2017-11-19T04:45:21.129Z,4.80
2017-11-19T04:46:21.165Z,4.73
2017-11-19T04:48:14.171Z,4.75
2017-11-19T04:49:14.204Z,4.60
2017-11-19T04:51:07.188Z,4.60
2017-11-19T04:52:07.246Z,4.60
2017-11-19T04:54:00.243Z,4.66
2017-11-19T04:55:00.276Z,4.66
2017-11-19T04:56:53.772Z,4.71
2017-11-19T04:57:53.835Z,4.75
2017-11-19T04:59:46.817Z,4.74
2017-11-19T05:00:46.849Z,4.80
2017-11-19T05:02:39.840Z,4.78
2017-11-19T05:03:39.896Z,4.80
2017-11-19T05:05:32.892Z,4.84
2017-11-19T05:06:32.925Z,4.82
2017-11-19T05:08:25.924Z,4.84
2017-11-19T05:09:25.961Z,4.92
2017-11-19T05:11:18.937Z,4.87
2017-11-19T05:12:18.995Z,4.82
2017-11-19T05:14:11.996Z,4.92
2017-11-19T05:15:12.031Z,4.87
2017-11-19T05:17:05.013Z,4.87
2017-11-19T05:18:05.072Z,4.90
2017-11-19T05:19:58.080Z,4.90
2017-11-19T05:20:58.101Z,4.89
2017-11-19T05:22:51.077Z,4.87
2017-11-19T05:23:51.132Z,4.90
2017-11-19T05:25:44.135Z,4.89
2017-11-19T05:26:44.171Z,4.86
2017-11-19T05:28:37.168Z,4.77
2017-11-19T05:29:37.202Z,4.78
2017-11-19T05:31:30.190Z,4.73
2017-11-19T05:32:30.231Z,4.77
2017-11-19T05:34:23.232Z,4.82
2017-11-19T05:35:23.297Z,4.92
2017-11-19T05:37:16.243Z,4.87
2017-11-19T05:38:16.301Z,4.87
2017-11-19T05:40:09.301Z,4.87
2017-11-19T05:41:09.331Z,4.89
2017-11-19T05:43:02.315Z,4.87
2017-11-19T05:44:02.365Z,4.77
2017-11-19T05:45:55.367Z,4.90
2017-11-19T05:46:55.399Z,4.93
2017-11-19T05:48:48.396Z,4.84
2017-11-19T05:49:48.434Z,4.75
2017-11-19T05:51:41.406Z,4.78
2017-11-19T05:52:41.464Z,4.74
2017-11-19T05:54:34.463Z,4.63
2017-11-19T05:55:34.496Z,4.62
2017-11-19T05:57:27.484Z,4.59
2017-11-19T05:58:27.577Z,4.56
2017-11-19T06:00:20.535Z,4.62
2017-11-19T06:01:20.568Z,4.62
2017-11-19T06:03:13.545Z,4.75
2017-11-19T06:04:13.600Z,4.67
2017-11-19T06:06:06.600Z,4.86
2017-11-19T06:07:06.638Z,4.84
2017-11-19T06:08:59.632Z,4.96
2017-11-19T06:09:59.668Z,4.84
2017-11-19T06:11:52.642Z,4.92
2017-11-19T06:12:52.696Z,4.90
2017-11-19T06:14:45.702Z,4.92
2017-11-19T06:15:45.736Z,4.84
2017-11-19T06:17:38.712Z,4.87
2017-11-19T06:18:38.779Z,4.86
2017-11-19T06:20:31.769Z,4.78
2017-11-19T06:21:31.794Z,4.93
2017-11-19T06:23:24.779Z,5.02
2017-11-19T06:24:24.833Z,5.00
2017-11-19T06:26:17.829Z,4.90
2017-11-19T06:27:17.866Z,4.89
2017-11-19T06:29:10.862Z,4.86
2017-11-19T06:30:10.898Z,4.96
2017-11-19T06:32:03.879Z,4.92
2017-11-19T06:33:03.932Z,4.92
2017-11-19T06:34:56.938Z,4.89
2017-11-19T06:35:56.973Z,4.82
2017-11-19T06:37:49.957Z,4.99
2017-11-19T06:38:50.032Z,4.97
2017-11-19T06:40:42.998Z,4.87
2017-11-19T06:41:43.034Z,4.90
2017-11-19T06:43:36.051Z,4.87
2017-11-19T06:44:36.076Z,4.89
2017-11-19T06:46:29.060Z,4.89
2017-11-19T06:47:29.115Z,4.92
2017-11-19T06:49:22.107Z,4.78
2017-11-19T06:50:22.147Z,4.73
2017-11-19T06:52:15.138Z,4.74
2017-11-19T06:53:15.178Z,4.70
2017-11-19T06:55:08.201Z,4.60
2017-11-19T06:56:08.210Z,4.60
2017-11-19T06:58:01.192Z,4.60
2017-11-19T06:59:01.247Z,4.63
2017-11-19T07:00:54.244Z,4.59
2017-11-19T07:01:54.279Z,4.56
2017-11-19T07:03:47.284Z,4.66
2017-11-19T07:04:47.318Z,4.62
2017-11-19T07:06:40.293Z,4.66
2017-11-19T07:07:40.344Z,4.59
2017-11-19T07:09:33.349Z,4.63
2017-11-19T07:10:33.375Z,4.62
2017-11-19T07:12:26.861Z,4.66
2017-11-19T07:13:26.915Z,4.55
2017-11-19T07:15:19.938Z,4.55
2017-11-19T07:16:19.948Z,4.50
2017-11-19T07:18:12.928Z,4.62
2017-11-19T07:19:12.979Z,4.53
2017-11-19T07:21:06.009Z,4.58
2017-11-19T07:22:06.019Z,4.62
2017-11-19T07:23:58.996Z,4.60
2017-11-19T07:24:59.053Z,4.63
2017-11-19T07:26:52.047Z,4.74
2017-11-19T07:27:52.103Z,4.60
2017-11-19T07:29:45.080Z,4.73
2017-11-19T07:30:45.114Z,4.77
2017-11-19T07:32:38.086Z,4.75
2017-11-19T07:33:38.147Z,4.74
2017-11-19T07:35:31.139Z,4.87
2017-11-19T07:36:31.175Z,4.86
2017-11-19T07:38:24.148Z,4.86
2017-11-19T07:39:24.204Z,4.89
2017-11-19T07:41:17.202Z,4.87
2017-11-19T07:42:17.244Z,4.89
2017-11-19T07:44:10.221Z,4.84
2017-11-19T07:45:10.272Z,4.92
2017-11-19T07:47:03.328Z,4.78
2017-11-19T07:48:03.313Z,4.94
2017-11-19T07:49:56.301Z,4.96
2017-11-19T07:50:56.363Z,5.05
2017-11-19T07:52:49.316Z,5.10
2017-11-19T07:53:49.367Z,5.17
2017-11-19T07:55:42.366Z,5.17
2017-11-19T07:56:42.400Z,5.29
2017-11-19T07:58:35.377Z,5.64
2017-11-19T07:59:35.495Z,5.57
2017-11-19T08:01:28.433Z,5.47
2017-11-19T08:02:28.470Z,5.39
2017-11-19T08:04:21.445Z,5.47
2017-11-19T08:05:21.501Z,6.07
2017-11-19T08:07:14.497Z,6.31
2017-11-19T08:08:14.533Z,6.57
2017-11-19T08:10:07.528Z,6.97
2017-11-19T08:11:07.562Z,7.28
2017-11-19T08:13:01.049Z,7.63
2017-11-19T08:14:01.106Z,7.72
2017-11-19T08:15:54.103Z,6.99
2017-11-19T08:16:54.138Z,6.85
2017-11-19T08:18:47.116Z,6.52
2017-11-19T08:19:47.172Z,6.44
2017-11-19T08:21:40.174Z,6.36
2017-11-19T08:22:40.220Z,6.31
2017-11-19T08:24:33.197Z,6.20
2017-11-19T08:25:33.247Z,6.45
2017-11-19T08:27:26.245Z,6.56
2017-11-19T08:28:26.279Z,7.29
2017-11-19T08:30:19.279Z,8.12
2017-11-19T08:31:19.331Z,8.51
2017-11-19T08:33:12.292Z,8.79
2017-11-19T08:34:12.357Z,8.74
2017-11-19T08:36:05.479Z,8.84
2017-11-19T08:37:05.379Z,8.79
2017-11-19T08:38:58.355Z,8.73
2017-11-19T08:39:58.416Z,8.49
2017-11-19T08:41:51.418Z,8.51
2017-11-19T08:42:51.451Z,8.61
2017-11-19T08:44:44.428Z,8.51
2017-11-19T08:45:44.483Z,8.46
2017-11-19T08:47:37.483Z,8.13
2017-11-19T08:48:37.524Z,7.94
2017-11-19T08:50:30.595Z,7.53
2017-11-19T08:51:30.583Z,7.39
2017-11-19T08:53:23.530Z,7.13
2017-11-19T08:54:23.594Z,7.28
2017-11-19T08:56:16.583Z,7.23
2017-11-19T08:57:16.619Z,7.31
2017-11-19T08:59:09.605Z,7.39
2017-11-19T09:00:09.655Z,7.73
2017-11-19T09:02:02.652Z,7.69
2017-11-19T09:03:02.689Z,7.67
2017-11-19T09:04:55.681Z,7.42
2017-11-19T09:05:55.727Z,7.31
2017-11-19T09:07:48.725Z,7.35
2017-11-19T09:08:48.767Z,7.33
2017-11-19T09:10:41.759Z,7.33
2017-11-19T09:11:41.796Z,7.28
2017-11-19T09:13:35.285Z,7.05
2017-11-19T09:14:35.341Z,7.02
2017-11-19T09:16:28.348Z,7.00
2017-11-19T09:17:28.386Z,6.82
2017-11-19T09:19:21.365Z,6.84
2017-11-19T09:20:21.423Z,6.85
2017-11-19T09:22:14.419Z,7.05
2017-11-19T09:23:14.456Z,6.95
2017-11-19T09:25:07.440Z,6.89
2017-11-19T09:26:07.491Z,6.93
2017-11-19T09:28:00.533Z,6.97
2017-11-19T09:29:00.528Z,7.13
2017-11-19T09:30:53.522Z,7.29
2017-11-19T09:31:53.561Z,7.42
2017-11-19T09:33:46.548Z,7.53
2017-11-19T09:34:46.600Z,7.67
2017-11-19T09:36:39.600Z,7.94
2017-11-19T09:37:39.636Z,7.80
2017-11-19T09:39:32.611Z,7.70
2017-11-19T09:40:32.669Z,7.77
2017-11-19T09:42:25.669Z,7.82
2017-11-19T09:43:25.702Z,7.82
2017-11-19T09:45:18.684Z,7.95
2017-11-19T09:46:18.739Z,7.85
2017-11-19T09:48:11.737Z,7.70
2017-11-19T09:49:11.782Z,7.54
2017-11-19T09:51:04.773Z,7.67
2017-11-19T09:52:04.807Z,7.77
2017-11-19T09:53:57.792Z,7.94
2017-11-19T09:54:57.851Z,7.88
2017-11-19T09:56:50.861Z,7.73
2017-11-19T09:57:50.887Z,7.72
2017-11-19T09:59:43.866Z,7.63
2017-11-19T10:00:43.924Z,7.72
2017-11-19T10:02:36.925Z,7.85
2017-11-19T10:03:36.980Z,7.87
2017-11-19T10:05:29.938Z,7.70
2017-11-19T10:06:29.995Z,7.70
2017-11-19T10:08:23.001Z,7.60
2017-11-19T10:09:23.038Z,7.66
2017-11-19T10:11:16.081Z,7.83
2017-11-19T10:12:16.073Z,8.03
2017-11-19T10:14:09.060Z,8.05
2017-11-19T10:15:09.107Z,8.09
2017-11-19T10:17:02.121Z,8.09
2017-11-19T10:18:02.154Z,8.16
2017-11-19T10:19:55.124Z,8.01
2017-11-19T10:20:55.183Z,7.94
2017-11-19T10:22:48.229Z,7.94
2017-11-19T10:23:48.539Z,8.05
2017-11-19T10:25:41.230Z,8.16
2017-11-19T10:26:41.280Z,8.23
2017-11-19T10:28:34.354Z,8.16
2017-11-19T10:29:34.334Z,8.13
2017-11-19T10:31:27.346Z,8.26
2017-11-19T10:32:27.411Z,8.31
2017-11-19T10:34:20.386Z,8.30
2017-11-19T10:35:20.652Z,8.31
2017-11-19T10:37:13.459Z,8.38
2017-11-19T10:38:13.505Z,8.51
2017-11-19T10:40:07.338Z,8.56
2017-11-19T10:41:07.442Z,8.60
2017-11-19T10:43:00.411Z,8.51
2017-11-19T10:44:00.461Z,8.60
2017-11-19T10:45:53.427Z,8.38
2017-11-19T10:46:53.484Z,8.41
2017-11-19T10:48:46.487Z,8.52
2017-11-19T10:49:46.527Z,8.70
2017-11-19T10:51:39.541Z,9.00
2017-11-19T10:52:39.563Z,9.16
2017-11-19T10:54:33.049Z,9.16
2017-11-19T10:55:33.103Z,9.22
2017-11-19T10:57:26.125Z,9.25
2017-11-19T10:58:26.147Z,9.23
2017-11-19T11:00:19.150Z,8.99
2017-11-19T11:01:19.223Z,8.91
2017-11-19T11:03:12.212Z,8.92
2017-11-19T11:04:12.252Z,8.95
2017-11-19T11:06:05.247Z,9.03
2017-11-19T11:07:05.312Z,9.02
2017-11-19T11:08:58.323Z,9.13
2017-11-19T11:09:58.352Z,9.18
2017-11-19T11:11:51.343Z,9.10
2017-11-19T11:12:51.391Z,8.99
2017-11-19T11:14:44.375Z,8.94
2017-11-19T11:15:44.421Z,8.97
2017-11-19T11:17:37.413Z,9.31
2017-11-19T11:18:37.732Z,9.21
2017-11-19T11:20:30.451Z,9.29
2017-11-19T11:21:30.511Z,9.34
2017-11-19T11:23:23.490Z,9.43
2017-11-19T11:24:23.529Z,9.55
2017-11-19T11:26:16.514Z,9.36
2017-11-19T11:27:16.581Z,9.31
2017-11-19T11:29:09.575Z,9.25
2017-11-19T11:30:09.607Z,9.19
2017-11-19T11:32:02.620Z,9.36
2017-11-19T11:33:02.674Z,9.39
2017-11-19T11:34:55.673Z,9.34
2017-11-19T11:35:55.692Z,9.23
2017-11-19T11:37:48.703Z,9.40
2017-11-19T11:38:48.767Z,9.29
2017-11-19T11:40:41.724Z,9.37
2017-11-19T11:41:41.781Z,9.36
2017-11-19T11:43:35.783Z,9.54
2017-11-19T11:44:35.828Z,9.46
2017-11-19T11:46:28.812Z,9.56
2017-11-19T11:47:28.867Z,9.64
2017-11-19T11:49:21.900Z,9.55
2017-11-19T11:50:21.920Z,9.40
2017-11-19T11:52:14.930Z,9.32
2017-11-19T11:53:14.958Z,9.29
2017-11-19T11:55:07.950Z,9.29
2017-11-19T11:56:07.998Z,9.22
2017-11-19T11:58:01.017Z,9.19
2017-11-19T11:59:01.064Z,9.21
2017-11-19T12:00:54.104Z,8.97
2017-11-19T12:01:54.155Z,8.82
2017-11-19T12:03:47.688Z,8.81
2017-11-19T12:04:47.702Z,8.74
2017-11-19T12:06:40.693Z,8.73
2017-11-19T12:07:40.744Z,8.74
2017-11-19T12:09:33.764Z,8.56
2017-11-19T12:10:33.788Z,8.56
2017-11-19T12:12:27.316Z,8.51
2017-11-19T12:13:27.330Z,8.42
2017-11-19T12:15:21.833Z,8.45
2017-11-19T12:16:21.898Z,8.34
2017-11-19T12:18:14.899Z,8.27
2017-11-19T12:19:14.929Z,8.33
2017-11-19T12:21:07.955Z,8.16
2017-11-19T12:22:08.030Z,8.16
2017-11-19T12:24:01.090Z,8.09
2017-11-19T12:25:01.232Z,8.01
2017-11-19T12:26:54.571Z,7.94
2017-11-19T12:27:54.218Z,7.85
2017-11-19T12:29:47.216Z,7.72
2017-11-19T12:30:47.196Z,7.63
2017-11-19T12:32:40.175Z,7.48
2017-11-19T12:33:40.210Z,7.38
2017-11-19T12:35:33.204Z,7.29
2017-11-19T12:36:33.257Z,7.40
2017-11-19T12:38:26.269Z,7.31
2017-11-19T12:39:26.305Z,7.31
2017-11-19T12:41:19.288Z,7.28
2017-11-19T12:42:19.349Z,7.38
2017-11-19T12:44:12.365Z,7.42
2017-11-19T12:45:12.399Z,7.47
2017-11-19T12:47:05.409Z,7.61
2017-11-19T12:48:05.476Z,7.69
2017-11-19T12:49:58.475Z,7.72
2017-11-19T12:50:58.514Z,7.70
2017-11-19T12:52:51.503Z,7.82
2017-11-19T12:53:51.547Z,7.82
2017-11-19T12:55:44.534Z,7.72
2017-11-19T12:56:44.572Z,7.70
2017-11-19T12:58:37.595Z,7.82
2017-11-19T12:59:37.617Z,7.82
2017-11-19T13:01:30.608Z,7.80
2017-11-19T13:02:30.660Z,7.76
2017-11-19T13:04:23.672Z,7.77
2017-11-19T13:05:23.711Z,7.69
2017-11-19T13:07:16.694Z,7.43
2017-11-19T13:08:16.754Z,7.28
2017-11-19T13:10:09.752Z,7.13
2017-11-19T13:11:09.786Z,7.02
2017-11-19T13:13:02.807Z,6.99
2017-11-19T13:14:02.843Z,7.15
2017-11-19T13:15:56.342Z,7.28
2017-11-19T13:16:56.395Z,7.29
2017-11-19T13:18:49.426Z,7.42
2017-11-19T13:19:49.443Z,7.42
2017-11-19T13:21:42.454Z,7.45
2017-11-19T13:22:42.551Z,7.42
2017-11-19T13:24:35.521Z,7.48
2017-11-19T13:25:35.564Z,7.48
2017-11-19T13:27:28.562Z,7.50
2017-11-19T13:28:28.613Z,7.45
2017-11-19T13:30:23.185Z,7.42
2017-11-19T13:31:23.207Z,7.35
2017-11-19T13:33:16.269Z,7.13
2017-11-19T13:34:16.245Z,7.11
2017-11-19T13:36:09.237Z,7.17
2017-11-19T13:37:09.292Z,7.13
2017-11-19T13:39:02.320Z,7.02
2017-11-19T13:40:02.347Z,7.07
2017-11-19T13:41:55.393Z,7.05
2017-11-19T13:42:55.443Z,7.03
2017-11-19T13:44:48.472Z,7.00
2017-11-19T13:45:48.505Z,6.93
2017-11-19T13:47:41.556Z,6.84
2017-11-19T13:48:41.623Z,6.87
2017-11-19T13:50:34.625Z,6.93
2017-11-19T13:51:34.651Z,7.02
2017-11-19T13:53:27.659Z,7.11
2017-11-19T13:54:27.737Z,7.28
2017-11-19T13:56:20.681Z,7.42
2017-11-19T13:57:20.740Z,7.50
2017-11-19T13:59:13.771Z,7.50
2017-11-19T14:00:13.819Z,7.51
2017-11-19T14:02:06.790Z,7.51
2017-11-19T14:03:06.839Z,7.63
2017-11-19T14:05:00.861Z,7.51
2017-11-19T14:06:00.895Z,7.51
2017-11-19T14:07:53.876Z,7.29
2017-11-19T14:08:53.952Z,7.21
2017-11-19T14:10:46.929Z,7.11
2017-11-19T14:11:46.984Z,7.06
2017-11-19T14:13:39.973Z,6.97
2017-11-19T14:14:40.007Z,6.89
2017-11-19T14:16:32.984Z,6.88
2017-11-19T14:17:33.056Z,6.88
2017-11-19T14:19:26.047Z,6.92
2017-11-19T14:20:26.082Z,6.99
2017-11-19T14:22:19.062Z,6.89
2017-11-19T14:23:19.138Z,6.88
2017-11-19T14:25:12.121Z,6.79
2017-11-19T14:26:12.161Z,6.82
2017-11-19T14:28:05.136Z,6.77
2017-11-19T14:29:05.192Z,6.75
2017-11-19T14:30:58.191Z,6.72
2017-11-19T14:31:58.226Z,6.62
2017-11-19T14:33:51.237Z,6.60
2017-11-19T14:34:51.264Z,6.54
2017-11-19T14:36:44.246Z,6.57
2017-11-19T14:37:44.299Z,6.62
2017-11-19T14:39:37.301Z,6.54
2017-11-19T14:40:37.336Z,6.48
2017-11-19T14:42:30.314Z,6.56
2017-11-19T14:43:30.373Z,6.54
2017-11-19T14:45:23.393Z,6.59
2017-11-19T14:46:23.413Z,6.44
2017-11-19T14:48:16.397Z,6.54
2017-11-19T14:49:16.449Z,6.60
2017-11-19T14:51:09.957Z,6.69
2017-11-19T14:52:09.994Z,6.62
2017-11-19T14:54:02.994Z,6.69
2017-11-19T14:55:03.031Z,6.75
2017-11-19T14:56:56.023Z,6.81
2017-11-19T14:57:56.071Z,6.82
2017-11-19T14:59:49.070Z,6.88
2017-11-19T15:00:49.103Z,6.97
2017-11-19T15:02:42.087Z,7.00
2017-11-19T15:03:42.139Z,7.02
2017-11-19T15:05:35.143Z,6.99
2017-11-19T15:06:35.174Z,7.20
2017-11-19T15:08:28.151Z,7.29
2017-11-19T15:09:28.209Z,7.24
2017-11-19T15:11:21.209Z,7.33
2017-11-19T15:12:21.246Z,7.28
2017-11-19T15:14:14.243Z,7.25
2017-11-19T15:15:14.286Z,7.23
2017-11-19T15:17:07.257Z,7.14
2017-11-19T15:18:07.312Z,7.14
2017-11-19T15:20:00.351Z,7.03
2017-11-19T15:21:00.403Z,7.17
2017-11-19T15:22:53.371Z,7.06
2017-11-19T15:23:53.423Z,7.02
2017-11-19T15:25:46.601Z,6.99
2017-11-19T15:26:46.632Z,7.07
2017-11-19T15:28:39.614Z,7.00
2017-11-19T15:29:39.667Z,6.85
2017-11-19T15:31:33.184Z,6.88
2017-11-19T15:32:33.207Z,6.87
2017-11-19T15:34:26.205Z,6.72
2017-11-19T15:35:26.276Z,6.78
2017-11-19T15:37:19.221Z,6.77
2017-11-19T15:38:19.277Z,6.74
2017-11-19T15:40:12.281Z,6.75
2017-11-19T15:41:12.318Z,6.67
2017-11-19T15:43:05.305Z,6.70
2017-11-19T15:44:05.356Z,6.69
2017-11-19T15:45:58.360Z,6.54
2017-11-19T15:46:58.392Z,6.62
2017-11-19T15:48:51.376Z,6.52
2017-11-19T15:49:51.430Z,6.46
2017-11-19T15:51:44.430Z,6.35
2017-11-19T15:52:44.469Z,6.28
2017-11-19T15:54:37.476Z,6.33
2017-11-19T15:55:37.521Z,6.39
2017-11-19T15:57:30.489Z,6.31
2017-11-19T15:58:30.546Z,6.24
2017-11-19T16:00:23.545Z,6.26
2017-11-19T16:01:23.581Z,6.20
2017-11-19T16:03:16.557Z,6.24
2017-11-19T16:04:16.611Z,6.27
2017-11-19T16:06:09.611Z,6.17
2017-11-19T16:07:09.647Z,6.08
2017-11-19T16:09:02.635Z,6.17
2017-11-19T16:10:02.685Z,6.01
2017-11-19T16:11:55.677Z,6.11
2017-11-19T16:12:55.711Z,5.91
2017-11-19T16:14:48.713Z,6.01
2017-11-19T16:15:48.748Z,6.02
2017-11-19T16:17:41.746Z,5.97
2017-11-19T16:18:41.783Z,5.89
2017-11-19T16:20:35.322Z,5.93
2017-11-19T16:21:35.325Z,5.89
2017-11-19T16:23:28.307Z,5.97
2017-11-19T16:24:28.778Z,5.83
2017-11-19T16:26:21.369Z,5.99
2017-11-19T16:27:21.398Z,5.98
2017-11-19T16:29:14.380Z,5.82
2017-11-19T16:30:14.443Z,5.89
2017-11-19T16:32:07.443Z,5.86
2017-11-19T16:33:07.479Z,5.90
2017-11-19T16:35:00.479Z,5.87
2017-11-19T16:36:00.518Z,5.86
2017-11-19T16:37:53.500Z,5.87
2017-11-19T16:38:53.558Z,5.89
2017-11-19T16:40:46.554Z,5.84
2017-11-19T16:41:46.590Z,5.86
2017-11-19T16:43:39.575Z,5.93
2017-11-19T16:44:39.640Z,5.93
2017-11-19T16:46:32.636Z,5.91
2017-11-19T16:47:32.681Z,6.01
2017-11-19T16:49:25.650Z,6.05
2017-11-19T16:50:25.707Z,6.01
2017-11-19T16:52:18.710Z,6.19
2017-11-19T16:53:18.748Z,6.22
2017-11-19T16:55:11.760Z,6.28
2017-11-19T16:56:11.807Z,6.22
2017-11-19T16:58:04.769Z,6.27
2017-11-19T16:59:04.829Z,6.30
2017-11-19T17:00:57.831Z,6.30
2017-11-19T17:01:57.862Z,6.26
2017-11-19T17:03:50.840Z,6.30
2017-11-19T17:04:50.898Z,6.26
2017-11-19T17:06:43.899Z,6.27
2017-11-19T17:07:43.937Z,6.26
2017-11-19T17:09:36.925Z,6.26
2017-11-19T17:10:36.993Z,6.27
2017-11-19T17:12:29.982Z,6.27
2017-11-19T17:13:30.033Z,6.20
2017-11-19T17:15:23.032Z,6.22
2017-11-19T17:16:23.062Z,6.31
2017-11-19T17:18:16.045Z,6.19
2017-11-19T17:19:16.105Z,6.30
2017-11-19T17:21:09.158Z,6.24
2017-11-19T17:22:09.161Z,6.20
2017-11-19T17:24:02.669Z,6.27
2017-11-19T17:25:02.702Z,6.33
2017-11-19T17:26:55.741Z,6.44
2017-11-19T17:27:55.744Z,6.41
2017-11-19T17:29:48.738Z,6.48
2017-11-19T17:30:48.785Z,6.39
2017-11-19T17:32:41.787Z,6.45
2017-11-19T17:33:41.826Z,6.42
2017-11-19T17:35:34.820Z,6.49
2017-11-19T17:36:34.870Z,6.42
2017-11-19T17:38:27.833Z,6.49
2017-11-19T17:39:27.891Z,6.45
2017-11-19T17:41:20.897Z,6.31
2017-11-19T17:42:20.931Z,6.31
2017-11-19T17:44:13.912Z,6.33
2017-11-19T17:45:13.968Z,6.33
2017-11-19T17:47:06.980Z,6.30
2017-11-19T17:48:07.020Z,6.33
2017-11-19T17:50:00.010Z,6.38
2017-11-19T17:51:00.053Z,6.27
2017-11-19T17:52:53.059Z,6.31
2017-11-19T17:53:53.134Z,6.30
2017-11-19T17:55:46.095Z,6.22
2017-11-19T17:56:46.130Z,6.24
2017-11-19T17:58:39.119Z,6.14
2017-11-19T17:59:39.169Z,6.09
2017-11-19T18:01:32.190Z,6.01
2017-11-19T18:02:32.215Z,6.07
2017-11-19T18:04:25.195Z,6.05
2017-11-19T18:05:25.254Z,6.05
2017-11-19T18:07:18.260Z,6.05
2017-11-19T18:08:18.290Z,6.05
2017-11-19T18:10:11.279Z,6.01
2017-11-19T18:11:11.328Z,5.89
2017-11-19T18:13:04.327Z,5.87
2017-11-19T18:14:04.364Z,5.91
2017-11-19T18:15:57.361Z,6.01
2017-11-19T18:16:57.401Z,6.08
2017-11-19T18:18:50.379Z,6.17
2017-11-19T18:19:50.435Z,6.07
2017-11-19T18:21:43.443Z,6.16
2017-11-19T18:22:43.482Z,6.14
2017-11-19T18:24:36.968Z,6.05
2017-11-19T18:25:37.023Z,6.09
2017-11-19T18:27:30.025Z,6.08
2017-11-19T18:28:30.091Z,6.01
2017-11-19T18:30:23.047Z,6.11
2017-11-19T18:31:23.107Z,6.07
2017-11-19T18:33:16.123Z,6.19
2017-11-19T18:34:16.132Z,6.22
2017-11-19T18:36:09.156Z,6.28
2017-11-19T18:37:09.191Z,6.26
2017-11-19T18:39:02.177Z,6.24
2017-11-19T18:40:02.352Z,6.14
2017-11-19T18:41:55.231Z,6.09
2017-11-19T18:42:55.264Z,6.08
2017-11-19T18:44:48.250Z,6.11
2017-11-19T18:45:48.360Z,6.09
2017-11-19T18:47:41.302Z,6.05
2017-11-19T18:48:41.335Z,6.02
2017-11-19T18:50:34.878Z,5.98
2017-11-19T18:51:34.401Z,5.91
2017-11-19T18:53:27.874Z,5.86
2017-11-19T18:54:27.911Z,5.76
2017-11-19T18:56:20.911Z,5.69
2017-11-19T18:57:20.951Z,5.64
2017-11-19T18:59:13.929Z,5.66
2017-11-19T19:00:14.200Z,5.59
2017-11-19T19:02:06.982Z,5.56
2017-11-19T19:03:07.023Z,5.59
2017-11-19T19:05:00.047Z,5.57
2017-11-19T19:06:00.059Z,5.44
2017-11-19T19:07:53.126Z,5.57
2017-11-19T19:08:53.091Z,5.56
2017-11-19T19:10:46.084Z,5.54
2017-11-19T19:11:46.128Z,5.54